sensor_id;sensor_type;location;lat;lon;timestamp;pressure;altitude;pressure_sealevel;temperature;humidity
13954;BME280;7049;49.444;8.522;2023-03-20T00:03:53;78251.25;;;-3.47;98.76
13954;BME280;7049;49.444;8.522;2023-03-20T00:08:55;78259.59;;;-3.47;98.67
13954;BME280;7049;49.444;8.522;2023-03-20T00:13:58;78253.34;;;-3.47;98.65
13954;BME280;7049;49.444;8.522;2023-03-20T00:19:02;78249.16;;;-3.47;98.29
13954;BME280;7049;49.444;8.522;2023-03-20T00:24:04;78251.25;;;-3.47;98.32
13954;BME280;7049;49.444;8.522;2023-03-20T00:29:06;78249.16;;;-3.47;98.46
13954;BME280;7049;49.444;8.522;2023-03-20T00:34:13;78242.88;;;-3.47;98.18
13954;BME280;7049;49.444;8.522;2023-03-20T00:39:15;78251.25;;;-3.47;98.43
13954;BME280;7049;49.444;8.522;2023-03-20T00:44:19;78251.25;;;-3.47;98.10
13954;BME280;7049;49.444;8.522;2023-03-20T00:49:24;78249.16;;;-3.47;98.19
13954;BME280;7049;49.444;8.522;2023-03-20T00:54:27;78253.34;;;-3.47;97.86
13954;BME280;7049;49.444;8.522;2023-03-20T00:59:31;78247.06;;;-3.47;97.66
13954;BME280;7049;49.444;8.522;2023-03-20T01:04:37;78249.16;;;-3.47;97.64
13954;BME280;7049;49.444;8.522;2023-03-20T01:09:38;78253.34;;;-3.47;97.70
13954;BME280;7049;49.444;8.522;2023-03-20T01:14:41;78257.53;;;-3.47;97.44
13954;BME280;7049;49.444;8.522;2023-03-20T01:19:44;78251.25;;;-3.47;97.50
13954;BME280;7049;49.444;8.522;2023-03-20T01:24:46;78257.53;;;-3.47;97.32
13954;BME280;7049;49.444;8.522;2023-03-20T01:29:48;78263.78;;;-3.47;97.29
13954;BME280;7049;49.444;8.522;2023-03-20T01:34:51;78257.53;;;-3.47;97.40
13954;BME280;7049;49.444;8.522;2023-03-20T01:39:54;78261.69;;;-3.47;97.61
13954;BME280;7049;49.444;8.522;2023-03-20T01:44:56;78265.88;;;-3.47;97.81
13954;BME280;7049;49.444;8.522;2023-03-20T01:50:27;78265.88;;;-3.47;97.87
13954;BME280;7049;49.444;8.522;2023-03-20T01:55:30;78265.88;;;-3.47;97.97
13954;BME280;7049;49.444;8.522;2023-03-20T02:00:39;78276.34;;;-3.47;97.98
13954;BME280;7049;49.444;8.522;2023-03-20T02:05:42;78272.16;;;-3.47;97.97
13954;BME280;7049;49.444;8.522;2023-03-20T02:10:45;78276.34;;;-3.47;98.25
13954;BME280;7049;49.444;8.522;2023-03-20T02:16:00;78274.25;;;-3.47;98.29
13954;BME280;7049;49.444;8.522;2023-03-20T02:21:34;78278.44;;;-3.47;98.45
13954;BME280;7049;49.444;8.522;2023-03-20T02:26:49;78278.44;;;-3.47;98.18
13954;BME280;7049;49.444;8.522;2023-03-20T02:32:17;78282.63;;;-3.47;98.43
13954;BME280;7049;49.444;8.522;2023-03-20T02:37:46;78286.81;;;-3.47;98.90
13954;BME280;7049;49.444;8.522;2023-03-20T02:42:57;78291.00;;;-3.47;98.84
13954;BME280;7049;49.444;8.522;2023-03-20T02:48:12;78286.81;;;-3.47;98.88
13954;BME280;7049;49.444;8.522;2023-03-20T02:53:31;78288.91;;;-3.47;98.90
13954;BME280;7049;49.444;8.522;2023-03-20T02:58:39;78286.81;;;-3.47;98.89
13954;BME280;7049;49.444;8.522;2023-03-20T03:03:46;78286.81;;;-3.47;98.71
13954;BME280;7049;49.444;8.522;2023-03-20T03:08:54;78299.38;;;-3.47;98.63
13954;BME280;7049;49.444;8.522;2023-03-20T03:14:00;78299.38;;;-3.47;99.11
13954;BME280;7049;49.444;8.522;2023-03-20T03:19:07;78293.09;;;-3.47;98.77
13954;BME280;7049;49.444;8.522;2023-03-20T03:24:22;78288.91;;;-3.47;99.16
13954;BME280;7049;49.444;8.522;2023-03-20T03:29:31;78293.09;;;-3.47;98.89
13954;BME280;7049;49.444;8.522;2023-03-20T03:34:35;78299.38;;;-3.47;99.17
13954;BME280;7049;49.444;8.522;2023-03-20T03:39:42;78293.09;;;-3.47;99.08
13954;BME280;7049;49.444;8.522;2023-03-20T03:44:52;78291.00;;;-3.47;99.36
13954;BME280;7049;49.444;8.522;2023-03-20T03:50:01;78284.72;;;-3.47;99.24
13954;BME280;7049;49.444;8.522;2023-03-20T03:55:10;78293.09;;;-3.47;99.26
13954;BME280;7049;49.444;8.522;2023-03-20T04:00:18;78299.38;;;-3.47;99.58
13954;BME280;7049;49.444;8.522;2023-03-20T04:05:23;78307.75;;;-3.47;99.54
13954;BME280;7049;49.444;8.522;2023-03-20T04:10:26;78311.94;;;-3.47;99.36
13954;BME280;7049;49.444;8.522;2023-03-20T04:15:28;78316.13;;;-3.47;99.41
13954;BME280;7049;49.444;8.522;2023-03-20T04:20:30;78322.41;;;-3.47;99.77
13954;BME280;7049;49.444;8.522;2023-03-20T04:25:33;78334.94;;;-3.47;99.76
13954;BME280;7049;49.444;8.522;2023-03-20T04:30:34;78332.84;;;-3.47;100.00
13954;BME280;7049;49.444;8.522;2023-03-20T04:35:36;78330.75;;;-3.47;99.78
13954;BME280;7049;49.444;8.522;2023-03-20T04:40:39;78320.31;;;-3.47;99.60
13954;BME280;7049;49.444;8.522;2023-03-20T04:45:40;78311.94;;;-3.47;99.54
13954;BME280;7049;49.444;8.522;2023-03-20T04:50:42;78311.94;;;-3.47;99.58
13954;BME280;7049;49.444;8.522;2023-03-20T04:55:47;78322.41;;;-3.47;99.75
13954;BME280;7049;49.444;8.522;2023-03-20T05:00:50;78324.47;;;-3.47;99.77
13954;BME280;7049;49.444;8.522;2023-03-20T05:05:51;78341.22;;;-3.47;100.00
13954;BME280;7049;49.444;8.522;2023-03-20T05:10:54;78341.22;;;-3.47;100.00
13954;BME280;7049;49.444;8.522;2023-03-20T05:15:55;78337.03;;;-3.47;100.00
13954;BME280;7049;49.444;8.522;2023-03-20T05:20:59;78337.03;;;-3.47;100.00
13954;BME280;7049;49.444;8.522;2023-03-20T05:26:03;78339.13;;;-3.47;100.00
13954;BME280;7049;49.444;8.522;2023-03-20T05:31:05;78345.41;;;-3.47;99.99
13954;BME280;7049;49.444;8.522;2023-03-20T05:36:07;78347.50;;;-3.47;99.93
13954;BME280;7049;49.444;8.522;2023-03-20T05:41:10;78351.69;;;-3.47;100.00
13954;BME280;7049;49.444;8.522;2023-03-20T05:46:12;78339.13;;;-3.47;100.00
13954;BME280;7049;49.444;8.522;2023-03-20T05:51:13;78341.22;;;-3.47;100.00
13954;BME280;7049;49.444;8.522;2023-03-20T05:56:16;78328.66;;;-3.47;100.00
13954;BME280;7049;49.444;8.522;2023-03-20T06:01:18;78320.31;;;-3.47;100.00
13954;BME280;7049;49.444;8.522;2023-03-20T06:06:20;78334.94;;;-3.47;100.00
13954;BME280;7049;49.444;8.522;2023-03-20T06:11:23;78330.75;;;-3.47;99.88
13954;BME280;7049;49.444;8.522;2023-03-20T06:16:27;78341.22;;;-3.47;100.00
13954;BME280;7049;49.444;8.522;2023-03-20T06:21:28;78355.88;;;-3.47;100.00
13954;BME280;7049;49.444;8.522;2023-03-20T06:26:31;78362.16;;;-3.47;100.00
13954;BME280;7049;49.444;8.522;2023-03-20T06:31:33;78349.59;;;-3.47;100.00
13954;BME280;7049;49.444;8.522;2023-03-20T06:36:34;78357.97;;;-3.47;100.00
13954;BME280;7049;49.444;8.522;2023-03-20T06:41:37;78355.88;;;-3.47;100.00
13954;BME280;7049;49.444;8.522;2023-03-20T06:46:39;78353.78;;;-3.47;100.00
13954;BME280;7049;49.444;8.522;2023-03-20T06:51:40;78360.06;;;-3.47;100.00
13954;BME280;7049;49.444;8.522;2023-03-20T06:56:43;78364.25;;;-3.47;100.00
13954;BME280;7049;49.444;8.522;2023-03-20T07:01:44;78366.34;;;-3.47;100.00
13954;BME280;7049;49.444;8.522;2023-03-20T07:06:46;78364.25;;;-3.47;100.00
13954;BME280;7049;49.444;8.522;2023-03-20T07:11:49;78366.34;;;-3.47;100.00
13954;BME280;7049;49.444;8.522;2023-03-20T07:16:50;78353.78;;;-3.47;99.98
13954;BME280;7049;49.444;8.522;2023-03-20T07:21:55;78353.78;;;-3.47;100.00
13954;BME280;7049;49.444;8.522;2023-03-20T07:27:02;78362.16;;;-3.47;100.00
13954;BME280;7049;49.444;8.522;2023-03-20T07:32:04;78353.78;;;-3.47;100.00
13954;BME280;7049;49.444;8.522;2023-03-20T07:37:05;78353.78;;;-3.47;100.00
13954;BME280;7049;49.444;8.522;2023-03-20T07:42:08;78341.22;;;-3.47;100.00
13954;BME280;7049;49.444;8.522;2023-03-20T07:47:09;78337.03;;;-3.47;100.00
13954;BME280;7049;49.444;8.522;2023-03-20T07:52:11;78332.84;;;-3.47;99.38
13954;BME280;7049;49.444;8.522;2023-03-20T07:57:14;78341.22;;;-3.47;99.68
13954;BME280;7049;49.444;8.522;2023-03-20T08:02:16;78337.03;;;-3.47;99.39
13954;BME280;7049;49.444;8.522;2023-03-20T08:07:18;78337.03;;;-3.47;99.19
13954;BME280;7049;49.444;8.522;2023-03-20T08:12:21;78332.84;;;-3.47;99.28
13954;BME280;7049;49.444;8.522;2023-03-20T08:17:22;78328.66;;;-3.47;99.09
13954;BME280;7049;49.444;8.522;2023-03-20T08:22:23;78322.41;;;-3.47;98.63
13954;BME280;7049;49.444;8.522;2023-03-20T08:27:26;78328.66;;;-3.47;99.10
13954;BME280;7049;49.444;8.522;2023-03-20T08:32:28;78330.75;;;-3.47;98.95
13954;BME280;7049;49.444;8.522;2023-03-20T08:37:29;78337.03;;;-3.47;99.31
13954;BME280;7049;49.444;8.522;2023-03-20T08:42:33;78322.41;;;-3.47;98.75
13954;BME280;7049;49.444;8.522;2023-03-20T08:47:35;78314.03;;;-3.47;98.88
13954;BME280;7049;49.444;8.522;2023-03-20T08:52:36;78307.75;;;-3.47;98.57
13954;BME280;7049;49.444;8.522;2023-03-20T08:57:44;78311.94;;;-3.47;98.24
13954;BME280;7049;49.444;8.522;2023-03-20T09:02:46;78314.03;;;-3.47;98.28
13954;BME280;7049;49.444;8.522;2023-03-20T09:07:47;78314.03;;;-3.47;98.45
13954;BME280;7049;49.444;8.522;2023-03-20T09:12:50;78314.03;;;-3.47;97.97
13954;BME280;7049;49.444;8.522;2023-03-20T09:17:51;78311.94;;;-3.47;97.70
13954;BME280;7049;49.444;8.522;2023-03-20T09:22:53;78307.75;;;-3.47;97.48
13954;BME280;7049;49.444;8.522;2023-03-20T09:27:56;78314.03;;;-3.47;97.01
13954;BME280;7049;49.444;8.522;2023-03-20T09:32:57;78305.66;;;-3.47;96.63
13954;BME280;7049;49.444;8.522;2023-03-20T09:37:59;78301.47;;;-3.47;95.95
13954;BME280;7049;49.444;8.522;2023-03-20T09:43:06;78295.19;;;-3.47;95.67
13954;BME280;7049;49.444;8.522;2023-03-20T09:48:18;78280.53;;;-3.47;94.70
13954;BME280;7049;49.444;8.522;2023-03-20T09:53:28;78257.53;;;-3.47;93.00
13954;BME280;7049;49.444;8.522;2023-03-20T09:58:33;78236.59;;;-3.47;92.94
13954;BME280;7049;49.444;8.522;2023-03-20T10:03:42;78215.66;;;-3.47;92.10
13954;BME280;7049;49.444;8.522;2023-03-20T10:08:44;78190.56;;;-3.47;90.89
13954;BME280;7049;49.444;8.522;2023-03-20T10:14:02;78173.81;;;-3.47;90.12
13954;BME280;7049;49.444;8.522;2023-03-20T10:19:14;78163.34;;;-3.47;89.32
13954;BME280;7049;49.444;8.522;2023-03-20T10:24:21;78157.06;;;-3.47;87.81
13954;BME280;7049;49.444;8.522;2023-03-20T10:29:34;78165.44;;;-3.47;88.48
13954;BME280;7049;49.444;8.522;2023-03-20T10:34:51;78140.31;;;-3.47;87.61
13954;BME280;7049;49.444;8.522;2023-03-20T10:40:06;78119.41;;;-3.47;85.35
13954;BME280;7049;49.444;8.522;2023-03-20T10:45:24;78106.84;;;-3.47;84.18
13954;BME280;7049;49.444;8.522;2023-03-20T10:50:30;78092.19;;;-3.47;83.58
13954;BME280;7049;49.444;8.522;2023-03-20T10:55:36;78079.63;;;-3.47;82.94
13954;BME280;7049;49.444;8.522;2023-03-20T11:00:41;78052.44;;;-3.47;80.42
13954;BME280;7049;49.444;8.522;2023-03-20T11:05:43;78027.31;;;-3.47;80.03
13954;BME280;7049;49.444;8.522;2023-03-20T11:10:44;77995.94;;;-3.47;78.89
13954;BME280;7049;49.444;8.522;2023-03-20T11:15:47;77958.28;;;-3.47;78.26
13954;BME280;7049;49.444;8.522;2023-03-20T11:20:51;77912.22;;;-3.47;73.24
13954;BME280;7049;49.444;8.522;2023-03-20T11:25:56;77910.13;;;-3.47;70.39
13954;BME280;7049;49.444;8.522;2023-03-20T11:31:02;77908.06;;;-3.47;66.62
13954;BME280;7049;49.444;8.522;2023-03-20T11:36:11;77895.50;;;-3.47;66.09
13954;BME280;7049;49.444;8.522;2023-03-20T11:41:25;77887.13;;;-3.47;66.06
13954;BME280;7049;49.444;8.522;2023-03-20T11:46:28;77866.19;;;-3.47;65.74
13954;BME280;7049;49.444;8.522;2023-03-20T11:51:30;77847.38;;;-3.47;61.91
13954;BME280;7049;49.444;8.522;2023-03-20T11:56:33;77841.09;;;-3.47;62.29
13954;BME280;7049;49.444;8.522;2023-03-20T12:01:41;77843.19;;;-3.47;61.38
13954;BME280;7049;49.444;8.522;2023-03-20T12:06:49;77836.91;;;-3.47;61.18
13954;BME280;7049;49.444;8.522;2023-03-20T12:11:54;77836.91;;;-3.47;62.19
13954;BME280;7049;49.444;8.522;2023-03-20T12:17:14;77818.06;;;-3.47;60.81
13954;BME280;7049;49.444;8.522;2023-03-20T12:22:22;77801.34;;;-3.47;62.28
13954;BME280;7049;49.444;8.522;2023-03-20T12:27:28;77786.69;;;-3.47;57.30
13954;BME280;7049;49.444;8.522;2023-03-20T12:32:39;77761.56;;;-3.47;58.81
13954;BME280;7049;49.444;8.522;2023-03-20T12:37:42;77755.28;;;-3.47;56.54
13954;BME280;7049;49.444;8.522;2023-03-20T12:42:54;77746.94;;;-3.47;54.96
13954;BME280;7049;49.444;8.522;2023-03-20T12:48:34;77734.38;;;-3.47;56.21
13954;BME280;7049;49.444;8.522;2023-03-20T12:54:00;77700.91;;;-3.47;52.04
13954;BME280;7049;49.444;8.522;2023-03-20T12:59:12;77679.97;;;-3.47;49.75
13954;BME280;7049;49.444;8.522;2023-03-20T13:04:29;77679.97;;;-3.47;50.69
13954;BME280;7049;49.444;8.522;2023-03-20T13:09:51;77663.22;;;-3.47;49.60
13954;BME280;7049;49.444;8.522;2023-03-20T13:15:03;77650.69;;;-3.47;49.13
13954;BME280;7049;49.444;8.522;2023-03-20T13:20:33;77659.03;;;-3.47;45.87
13954;BME280;7049;49.444;8.522;2023-03-20T13:25:53;77663.22;;;-3.47;45.60
13954;BME280;7049;49.444;8.522;2023-03-20T13:31:08;77640.22;;;-3.47;45.49
13954;BME280;7049;49.444;8.522;2023-03-20T13:36:24;77629.75;;;-3.47;43.15
13954;BME280;7049;49.444;8.522;2023-03-20T13:41:29;77621.38;;;-3.47;42.25
13954;BME280;7049;49.444;8.522;2023-03-20T13:46:36;77625.56;;;-3.47;41.96
13954;BME280;7049;49.444;8.522;2023-03-20T13:51:46;77633.94;;;-3.47;41.71
13954;BME280;7049;49.444;8.522;2023-03-20T13:56:56;77629.75;;;-3.47;41.98
13954;BME280;7049;49.444;8.522;2023-03-20T14:02:12;77631.84;;;-3.47;42.78
13954;BME280;7049;49.444;8.522;2023-03-20T14:07:30;77629.75;;;-3.47;41.35
13954;BME280;7049;49.444;8.522;2023-03-20T14:12:32;77629.75;;;-3.47;40.70
13954;BME280;7049;49.444;8.522;2023-03-20T14:17:34;77638.13;;;-3.47;41.52
13954;BME280;7049;49.444;8.522;2023-03-20T14:22:38;77648.59;;;-3.47;40.01
13954;BME280;7049;49.444;8.522;2023-03-20T14:27:53;77633.94;;;-3.47;40.97
13954;BME280;7049;49.444;8.522;2023-03-20T14:32:58;77613.00;;;-3.47;37.98
13954;BME280;7049;49.444;8.522;2023-03-20T14:38:14;77613.00;;;-3.47;37.81
13954;BME280;7049;49.444;8.522;2023-03-20T14:43:35;77610.91;;;-3.47;36.25
13954;BME280;7049;49.444;8.522;2023-03-20T14:48:41;77602.56;;;-3.47;36.00
13954;BME280;7049;49.444;8.522;2023-03-20T14:53:53;77596.28;;;-3.47;35.79
13954;BME280;7049;49.444;8.522;2023-03-20T14:58:58;77581.63;;;-3.47;35.53
13954;BME280;7049;49.444;8.522;2023-03-20T15:04:04;77566.97;;;-3.47;35.45
13954;BME280;7049;49.444;8.522;2023-03-20T15:09:10;77560.72;;;-3.47;35.28
13954;BME280;7049;49.444;8.522;2023-03-20T15:14:17;77577.44;;;-3.47;35.75
13954;BME280;7049;49.444;8.522;2023-03-20T15:19:21;77587.91;;;-3.47;37.18
13954;BME280;7049;49.444;8.522;2023-03-20T15:24:25;77600.47;;;-3.47;36.90
13954;BME280;7049;49.444;8.522;2023-03-20T15:29:27;77621.38;;;-3.47;37.26
13954;BME280;7049;49.444;8.522;2023-03-20T15:34:31;77648.59;;;-3.47;36.74
13954;BME280;7049;49.444;8.522;2023-03-20T15:39:43;77667.41;;;-3.47;37.30
13954;BME280;7049;49.444;8.522;2023-03-20T15:44:46;77696.72;;;-3.47;37.03
13954;BME280;7049;49.444;8.522;2023-03-20T15:49:50;77705.09;;;-3.47;37.00
13954;BME280;7049;49.444;8.522;2023-03-20T15:54:54;77703.00;;;-3.47;37.31
13954;BME280;7049;49.444;8.522;2023-03-20T15:59:56;77713.44;;;-3.47;37.78
13954;BME280;7049;49.444;8.522;2023-03-20T16:04:58;77721.81;;;-3.47;36.93
13954;BME280;7049;49.444;8.522;2023-03-20T16:10:01;77744.84;;;-3.47;37.31
13954;BME280;7049;49.444;8.522;2023-03-20T16:15:03;77753.22;;;-3.47;37.51
13954;BME280;7049;49.444;8.522;2023-03-20T16:20:07;77767.84;;;-3.47;37.81
13954;BME280;7049;49.444;8.522;2023-03-20T16:25:14;77776.22;;;-3.47;37.69
13954;BME280;7049;49.444;8.522;2023-03-20T16:30:18;77790.88;;;-3.47;37.68
13954;BME280;7049;49.444;8.522;2023-03-20T16:35:25;77811.78;;;-3.47;37.75
13954;BME280;7049;49.444;8.522;2023-03-20T16:40:30;77818.06;;;-3.47;37.35
13954;BME280;7049;49.444;8.522;2023-03-20T16:45:34;77834.81;;;-3.47;37.05
13954;BME280;7049;49.444;8.522;2023-03-20T16:50:37;77847.38;;;-3.47;36.98
13954;BME280;7049;49.444;8.522;2023-03-20T16:55:44;77866.19;;;-3.47;36.99
13954;BME280;7049;49.444;8.522;2023-03-20T17:00:50;77882.94;;;-3.47;37.31
13954;BME280;7049;49.444;8.522;2023-03-20T17:05:54;77887.13;;;-3.47;36.89
13954;BME280;7049;49.444;8.522;2023-03-20T17:11:03;77897.59;;;-3.47;37.10
13954;BME280;7049;49.444;8.522;2023-03-20T17:16:06;77920.59;;;-3.47;37.46
13954;BME280;7049;49.444;8.522;2023-03-20T17:21:08;77935.25;;;-3.47;38.24
13954;BME280;7049;49.444;8.522;2023-03-20T17:26:11;77947.81;;;-3.47;37.88
13954;BME280;7049;49.444;8.522;2023-03-20T17:31:14;77947.81;;;-3.47;38.13
13954;BME280;7049;49.444;8.522;2023-03-20T17:36:18;77960.38;;;-3.47;38.30
13954;BME280;7049;49.444;8.522;2023-03-20T17:41:22;77970.81;;;-3.47;37.60
13954;BME280;7049;49.444;8.522;2023-03-20T17:46:28;77979.19;;;-3.47;38.21
13954;BME280;7049;49.444;8.522;2023-03-20T17:51:29;77985.47;;;-3.47;37.43
13954;BME280;7049;49.444;8.522;2023-03-20T17:56:33;78000.13;;;-3.47;37.68
13954;BME280;7049;49.444;8.522;2023-03-20T18:01:35;78006.41;;;-3.47;37.86
13954;BME280;7049;49.444;8.522;2023-03-20T18:06:36;78023.13;;;-3.47;38.49
13954;BME280;7049;49.444;8.522;2023-03-20T18:11:39;78027.31;;;-3.47;38.26
13954;BME280;7049;49.444;8.522;2023-03-20T18:16:40;78031.50;;;-3.47;39.10
13954;BME280;7049;49.444;8.522;2023-03-20T18:21:42;78033.59;;;-3.47;38.97
13954;BME280;7049;49.444;8.522;2023-03-20T18:26:44;78035.69;;;-3.47;39.05
13954;BME280;7049;49.444;8.522;2023-03-20T18:31:46;78035.69;;;-3.47;39.19
13954;BME280;7049;49.444;8.522;2023-03-20T18:36:48;78039.88;;;-3.47;39.13
13954;BME280;7049;49.444;8.522;2023-03-20T18:41:51;78050.34;;;-3.47;39.13
13954;BME280;7049;49.444;8.522;2023-03-20T18:46:53;78054.53;;;-3.47;39.43
13954;BME280;7049;49.444;8.522;2023-03-20T18:51:54;78060.81;;;-3.47;39.61
13954;BME280;7049;49.444;8.522;2023-03-20T18:57:00;78073.38;;;-3.47;40.39
13954;BME280;7049;49.444;8.522;2023-03-20T19:02:01;78069.19;;;-3.47;39.96
13954;BME280;7049;49.444;8.522;2023-03-20T19:07:03;78079.63;;;-3.47;40.10
13954;BME280;7049;49.444;8.522;2023-03-20T19:12:06;78085.91;;;-3.47;40.71
13954;BME280;7049;49.444;8.522;2023-03-20T19:17:09;78083.81;;;-3.47;41.06
13954;BME280;7049;49.444;8.522;2023-03-20T19:22:11;78090.09;;;-3.47;41.63
13954;BME280;7049;49.444;8.522;2023-03-20T19:27:14;78096.38;;;-3.47;41.81
13954;BME280;7049;49.444;8.522;2023-03-20T19:32:16;78092.19;;;-3.47;41.57
13954;BME280;7049;49.444;8.522;2023-03-20T19:37:17;78100.56;;;-3.47;42.38
13954;BME280;7049;49.444;8.522;2023-03-20T19:42:20;78092.19;;;-3.47;42.04
13954;BME280;7049;49.444;8.522;2023-03-20T19:47:21;78098.47;;;-3.47;42.19
13954;BME280;7049;49.444;8.522;2023-03-20T19:52:26;78094.28;;;-3.47;42.24
13954;BME280;7049;49.444;8.522;2023-03-20T19:57:32;78096.38;;;-3.47;42.69
13954;BME280;7049;49.444;8.522;2023-03-20T20:02:33;78111.03;;;-3.47;42.92
13954;BME280;7049;49.444;8.522;2023-03-20T20:07:41;78111.03;;;-3.47;43.67
13954;BME280;7049;49.444;8.522;2023-03-20T20:12:44;78117.31;;;-3.47;44.95
13954;BME280;7049;49.444;8.522;2023-03-20T20:17:45;78115.22;;;-3.47;47.04
13954;BME280;7049;49.444;8.522;2023-03-20T20:22:48;78119.41;;;-3.47;48.94
13954;BME280;7049;49.444;8.522;2023-03-20T20:27:51;78115.22;;;-3.47;49.54
13954;BME280;7049;49.444;8.522;2023-03-20T20:32:53;78119.41;;;-3.47;48.67
13954;BME280;7049;49.444;8.522;2023-03-20T20:37:54;78123.59;;;-3.47;48.49
13954;BME280;7049;49.444;8.522;2023-03-20T20:42:58;78131.97;;;-3.47;48.75
13954;BME280;7049;49.444;8.522;2023-03-20T20:48:02;78131.97;;;-3.47;50.41
13954;BME280;7049;49.444;8.522;2023-03-20T20:53:04;78138.22;;;-3.47;51.60
13954;BME280;7049;49.444;8.522;2023-03-20T20:58:08;78142.41;;;-3.47;53.70
13954;BME280;7049;49.444;8.522;2023-03-20T21:03:10;78146.59;;;-3.47;54.17
13954;BME280;7049;49.444;8.522;2023-03-20T21:08:12;78146.59;;;-3.47;55.39
13954;BME280;7049;49.444;8.522;2023-03-20T21:13:15;78157.06;;;-3.47;55.90
13954;BME280;7049;49.444;8.522;2023-03-20T21:18:17;78152.88;;;-3.47;56.70
13954;BME280;7049;49.444;8.522;2023-03-20T21:23:18;78157.06;;;-3.47;56.98
13954;BME280;7049;49.444;8.522;2023-03-20T21:28:21;78157.06;;;-3.47;57.64
13954;BME280;7049;49.444;8.522;2023-03-20T21:33:23;78165.44;;;-3.47;58.29
13954;BME280;7049;49.444;8.522;2023-03-20T21:38:25;78167.53;;;-3.47;59.17
13954;BME280;7049;49.444;8.522;2023-03-20T21:43:28;78165.44;;;-3.47;59.79
13954;BME280;7049;49.444;8.522;2023-03-20T21:48:30;78167.53;;;-3.47;58.21
13954;BME280;7049;49.444;8.522;2023-03-20T21:53:32;78178.00;;;-3.47;57.59
13954;BME280;7049;49.444;8.522;2023-03-20T21:58:37;78182.19;;;-3.47;57.72
13954;BME280;7049;49.444;8.522;2023-03-20T22:03:39;78186.38;;;-3.47;58.32
13954;BME280;7049;49.444;8.522;2023-03-20T22:08:40;78190.56;;;-3.47;58.04
13954;BME280;7049;49.444;8.522;2023-03-20T22:13:43;78192.66;;;-3.47;58.66
13954;BME280;7049;49.444;8.522;2023-03-20T22:18:45;78194.75;;;-3.47;59.04
13954;BME280;7049;49.444;8.522;2023-03-20T22:23:48;78194.75;;;-3.47;59.71
13954;BME280;7049;49.444;8.522;2023-03-20T22:28:51;78203.09;;;-3.47;59.36
13954;BME280;7049;49.444;8.522;2023-03-20T22:33:53;78198.91;;;-3.47;60.72
13954;BME280;7049;49.444;8.522;2023-03-20T22:38:54;78201.00;;;-3.47;61.69
13954;BME280;7049;49.444;8.522;2023-03-20T22:43:59;78201.00;;;-3.47;61.86
13954;BME280;7049;49.444;8.522;2023-03-20T22:49:00;78207.28;;;-3.47;61.85
13954;BME280;7049;49.444;8.522;2023-03-20T22:54:02;78205.19;;;-3.47;61.51
13954;BME280;7049;49.444;8.522;2023-03-20T22:59:04;78207.28;;;-3.47;62.50
13954;BME280;7049;49.444;8.522;2023-03-20T23:04:06;78203.09;;;-3.47;62.65
13954;BME280;7049;49.444;8.522;2023-03-20T23:09:08;78213.56;;;-3.47;62.37
13954;BME280;7049;49.444;8.522;2023-03-20T23:14:11;78217.75;;;-3.47;61.90
13954;BME280;7049;49.444;8.522;2023-03-20T23:19:12;78219.84;;;-3.47;62.02
13954;BME280;7049;49.444;8.522;2023-03-20T23:24:13;78232.41;;;-3.47;62.23
13954;BME280;7049;49.444;8.522;2023-03-20T23:29:17;78249.16;;;-3.47;62.27
13954;BME280;7049;49.444;8.522;2023-03-20T23:34:19;78253.34;;;-3.47;62.47
13954;BME280;7049;49.444;8.522;2023-03-20T23:39:20;78257.53;;;-3.47;63.07
13954;BME280;7049;49.444;8.522;2023-03-20T23:44:23;78257.53;;;-3.47;63.74
13954;BME280;7049;49.444;8.522;2023-03-20T23:49:25;78261.69;;;-3.47;64.09
13954;BME280;7049;49.444;8.522;2023-03-20T23:54:26;78253.34;;;-3.47;64.23
13954;BME280;7049;49.444;8.522;2023-03-20T23:59:29;78257.53;;;-3.47;64.81
